createdAt,value
2019-05-12T00:01:18.799Z,100.00
2019-05-12T00:03:51.341Z,100.00
2019-05-12T00:06:22.340Z,100.00
2019-05-12T00:08:53.770Z,100.00
2019-05-12T00:11:25.588Z,100.00
2019-05-12T00:13:58.615Z,100.00
2019-05-12T00:16:29.548Z,100.00
2019-05-12T00:19:00.590Z,100.00
2019-05-12T00:21:32.043Z,100.00
2019-05-12T00:24:11.658Z,100.00
2019-05-12T00:26:43.928Z,100.00
2019-05-12T00:29:14.694Z,100.00
2019-05-12T00:31:47.622Z,100.00
2019-05-12T00:34:18.550Z,100.00
2019-05-12T00:36:50.651Z,100.00
2019-05-12T00:39:21.718Z,100.00
2019-05-12T00:41:52.499Z,100.00
2019-05-12T00:44:23.806Z,100.00
2019-05-12T00:46:54.810Z,100.00
2019-05-12T00:49:25.851Z,100.00
2019-05-12T00:51:58.675Z,100.00
2019-05-12T00:54:29.582Z,100.00
2019-05-12T00:57:00.785Z,100.00
2019-05-12T00:59:31.853Z,100.00
2019-05-12T01:02:03.606Z,100.00
2019-05-12T01:04:34.411Z,100.00
2019-05-12T01:07:05.255Z,100.00
2019-05-12T01:09:36.038Z,100.00
2019-05-12T01:12:07.953Z,100.00
2019-05-12T01:14:38.986Z,100.00
2019-05-12T01:17:09.752Z,100.00
2019-05-12T01:19:40.957Z,100.00
2019-05-12T01:22:12.035Z,100.00
2019-05-12T01:24:43.048Z,100.00
2019-05-12T01:27:14.085Z,100.00
2019-05-12T01:29:44.872Z,100.00
2019-05-12T01:32:26.015Z,100.00
2019-05-12T01:34:57.773Z,100.00
2019-05-12T01:37:28.592Z,100.00
2019-05-12T01:40:00.082Z,100.00
2019-05-12T01:42:31.177Z,100.00
2019-05-12T01:45:02.075Z,100.00
2019-05-12T01:47:32.981Z,100.00
2019-05-12T01:50:05.691Z,100.00
2019-05-12T01:52:38.618Z,100.00
2019-05-12T01:55:09.741Z,100.00
2019-05-12T01:57:40.756Z,100.00
2019-05-12T02:00:12.251Z,100.00
2019-05-12T02:02:43.273Z,100.00
2019-05-12T02:05:14.337Z,100.00
2019-05-12T02:07:52.642Z,100.00
2019-05-12T02:10:23.755Z,100.00
2019-05-12T02:12:54.751Z,100.00
2019-05-12T02:15:27.686Z,100.00
2019-05-12T02:17:59.117Z,100.00
2019-05-12T02:20:30.174Z,100.00
2019-05-12T02:23:01.184Z,100.00
2019-05-12T02:25:32.288Z,100.00
2019-05-12T02:28:03.385Z,100.00
2019-05-12T02:30:34.156Z,100.00
2019-05-12T02:33:05.517Z,100.00
2019-05-12T02:35:36.353Z,100.00
2019-05-12T02:38:07.120Z,100.00
2019-05-12T02:40:37.917Z,100.00
2019-05-12T02:43:08.933Z,100.00
2019-05-12T02:45:39.985Z,100.00
2019-05-12T02:48:14.149Z,100.00
2019-05-12T02:50:45.192Z,100.00
2019-05-12T02:53:16.187Z,100.00
2019-05-12T02:55:48.304Z,100.00
2019-05-12T02:58:20.511Z,100.00
2019-05-12T03:00:54.755Z,100.00
2019-05-12T03:03:27.550Z,100.00
2019-05-12T03:05:59.348Z,100.00
2019-05-12T03:08:34.890Z,100.00
2019-05-12T03:11:06.218Z,100.00
2019-05-12T03:13:37.519Z,100.00
2019-05-12T03:16:08.779Z,100.00
2019-05-12T03:18:40.292Z,100.00
2019-05-12T03:21:11.154Z,100.00
2019-05-12T03:23:44.667Z,100.00
2019-05-12T03:26:15.307Z,100.00
2019-05-12T03:28:46.342Z,100.00
2019-05-12T03:31:23.601Z,100.00
2019-05-12T03:33:54.181Z,100.00
2019-05-12T03:36:32.130Z,100.00
2019-05-12T03:38:56.688Z,100.00
2019-05-12T03:41:27.459Z,100.00
2019-05-12T03:43:59.443Z,100.00
2019-05-12T03:46:30.228Z,100.00
2019-05-12T03:49:04.885Z,100.00
2019-05-12T03:51:35.178Z,100.00
2019-05-12T03:54:06.527Z,100.00
2019-05-12T03:56:37.545Z,100.00
2019-05-12T03:59:08.600Z,100.00
2019-05-12T04:01:40.223Z,100.00
2019-05-12T04:04:11.213Z,100.00
2019-05-12T04:06:45.041Z,100.00
2019-05-12T04:09:15.691Z,100.00
2019-05-12T04:11:47.215Z,100.00
2019-05-12T04:14:18.494Z,100.00
2019-05-12T04:16:49.335Z,100.00
2019-05-12T04:19:20.329Z,100.00
2019-05-12T04:21:51.177Z,100.00
2019-05-12T04:24:24.935Z,100.00
2019-05-12T04:26:55.328Z,100.00
2019-05-12T04:29:26.354Z,100.00
2019-05-12T04:31:57.663Z,100.00
2019-05-12T04:34:28.657Z,100.00
2019-05-12T04:36:59.677Z,100.00
2019-05-12T04:39:33.959Z,100.00
2019-05-12T04:42:05.311Z,100.00
2019-05-12T04:44:36.433Z,100.00
2019-05-12T04:47:08.442Z,100.00
2019-05-12T04:49:39.486Z,100.00
2019-05-12T04:52:10.269Z,100.00
2019-05-12T04:54:44.311Z,100.00
2019-05-12T04:57:14.876Z,100.00
2019-05-12T04:59:48.788Z,100.00
2019-05-12T05:02:19.559Z,100.00
2019-05-12T05:04:50.711Z,100.00
2019-05-12T05:07:24.209Z,100.00
2019-05-12T05:09:55.028Z,100.00
2019-05-12T05:12:25.947Z,100.00
2019-05-12T05:14:56.711Z,100.00
2019-05-12T05:17:27.820Z,100.00
2019-05-12T05:19:58.834Z,100.00
2019-05-12T05:22:29.685Z,100.00
2019-05-12T05:25:00.935Z,100.00
2019-05-12T05:27:34.052Z,100.00
2019-05-12T05:30:05.117Z,96.68
2019-05-12T05:32:35.965Z,98.41
2019-05-12T05:35:07.884Z,99.19
2019-05-12T05:37:41.527Z,100.00
2019-05-12T05:40:13.880Z,100.00
2019-05-12T05:42:44.149Z,100.00
2019-05-12T05:45:19.558Z,100.00
2019-05-12T05:47:49.029Z,97.49
2019-05-12T05:50:25.177Z,92.59
2019-05-12T05:52:54.261Z,93.12
2019-05-12T05:55:26.013Z,93.72
2019-05-12T05:57:59.907Z,93.99
2019-05-12T06:00:29.303Z,91.46
2019-05-12T06:03:00.094Z,96.55
2019-05-12T06:05:31.159Z,95.29
2019-05-12T06:08:04.094Z,96.24
2019-05-12T06:10:39.864Z,93.80
2019-05-12T06:13:07.419Z,90.56
2019-05-12T06:15:40.811Z,93.57
2019-05-12T06:18:13.429Z,94.50
2019-05-12T06:20:43.902Z,90.77
2019-05-12T06:23:15.240Z,91.41
2019-05-12T06:25:51.312Z,87.75
2019-05-12T06:28:18.804Z,88.48
2019-05-12T06:30:50.389Z,88.14
2019-05-12T06:33:24.801Z,90.87
2019-05-12T06:35:54.394Z,84.81
2019-05-12T06:38:25.348Z,85.82
2019-05-12T06:40:56.094Z,87.75
2019-05-12T06:43:29.043Z,87.91
2019-05-12T06:45:59.572Z,86.26
2019-05-12T06:48:33.090Z,86.33
2019-05-12T06:51:04.122Z,85.69
2019-05-12T06:53:34.864Z,85.36
2019-05-12T06:56:09.450Z,87.01
2019-05-12T06:58:38.412Z,83.21
2019-05-12T07:01:16.695Z,84.58
2019-05-12T07:03:44.033Z,83.01
2019-05-12T07:06:19.674Z,83.48
2019-05-12T07:09:01.323Z,83.75
2019-05-12T07:11:20.731Z,83.80
2019-05-12T07:14:03.995Z,85.35
2019-05-12T07:16:30.085Z,83.10
2019-05-12T07:18:56.981Z,81.71
2019-05-12T07:21:28.126Z,83.24
2019-05-12T07:24:00.542Z,83.17
2019-05-12T07:26:33.908Z,81.71
2019-05-12T07:29:04.824Z,82.76
2019-05-12T07:31:35.847Z,82.21
2019-05-12T07:34:07.879Z,82.89
2019-05-12T07:36:39.203Z,82.10
2019-05-12T07:39:10.289Z,82.86
2019-05-12T07:41:42.383Z,80.91
2019-05-12T07:44:15.042Z,82.41
2019-05-12T07:46:49.418Z,82.29
2019-05-12T07:49:22.546Z,80.88
2019-05-12T07:51:51.206Z,80.06
2019-05-12T07:54:23.606Z,82.50
2019-05-12T07:56:54.912Z,82.25
2019-05-12T07:59:34.611Z,82.83
2019-05-12T08:01:58.825Z,84.64
2019-05-12T08:04:31.740Z,80.42
2019-05-12T08:07:03.933Z,82.27
2019-05-12T08:09:36.550Z,82.26
2019-05-12T08:12:13.223Z,83.96
2019-05-12T08:14:40.224Z,81.68
2019-05-12T08:17:16.841Z,81.86
2019-05-12T08:19:44.345Z,81.23
2019-05-12T08:22:18.842Z,85.84
2019-05-12T08:24:48.336Z,82.34
2019-05-12T08:27:19.389Z,82.90
2019-05-12T08:29:52.431Z,84.65
2019-05-12T08:32:23.444Z,82.21
2019-05-12T08:34:55.329Z,83.80
2019-05-12T08:37:26.237Z,81.78
2019-05-12T08:40:03.154Z,83.41
2019-05-12T08:42:30.021Z,83.01
2019-05-12T08:45:03.892Z,83.97
2019-05-12T08:47:38.667Z,82.07
2019-05-12T08:50:06.659Z,82.65
2019-05-12T08:52:41.315Z,81.79
2019-05-12T08:55:10.000Z,79.48
2019-05-12T08:57:49.241Z,79.86
2019-05-12T09:00:14.734Z,80.15
2019-05-12T09:02:50.447Z,78.83
2019-05-12T09:05:18.452Z,76.41
2019-05-12T09:07:49.511Z,79.82
2019-05-12T09:10:20.284Z,78.74
2019-05-12T09:12:51.109Z,79.80
2019-05-12T09:15:23.949Z,81.36
2019-05-12T09:17:57.062Z,80.15
2019-05-12T09:20:27.513Z,80.38
2019-05-12T09:23:00.794Z,81.34
2019-05-12T09:25:33.841Z,80.24
2019-05-12T09:28:04.805Z,79.83
2019-05-12T09:30:40.098Z,79.18
2019-05-12T09:33:08.068Z,78.24
2019-05-12T09:35:39.427Z,77.26
2019-05-12T09:38:11.364Z,77.00
2019-05-12T09:40:43.785Z,78.54
2019-05-12T09:43:14.834Z,76.33
2019-05-12T09:45:52.104Z,76.02
2019-05-12T09:48:18.065Z,76.83
2019-05-12T09:50:51.486Z,75.28
2019-05-12T09:53:23.698Z,74.51
2019-05-12T09:55:58.521Z,76.35
2019-05-12T09:58:28.357Z,75.70
2019-05-12T10:00:59.539Z,73.61
2019-05-12T10:03:35.536Z,75.20
2019-05-12T10:06:03.736Z,70.83
2019-05-12T10:08:35.719Z,71.08
2019-05-12T10:11:10.347Z,70.06
2019-05-12T10:13:40.035Z,70.24
2019-05-12T10:16:13.312Z,73.30
2019-05-12T10:18:51.279Z,73.25
2019-05-12T10:21:17.607Z,72.53
2019-05-12T10:23:51.482Z,65.64
2019-05-12T10:26:22.076Z,68.64
2019-05-12T10:28:58.130Z,69.20
2019-05-12T10:31:29.667Z,62.77
2019-05-12T10:34:16.786Z,66.91
2019-05-12T10:36:49.127Z,67.47
2019-05-12T10:39:20.178Z,63.50
2019-05-12T10:41:51.052Z,64.85
2019-05-12T10:44:22.038Z,61.21
2019-05-12T10:46:55.562Z,64.12
2019-05-12T10:49:26.329Z,60.61
2019-05-12T10:51:57.581Z,59.36
2019-05-12T10:54:28.434Z,63.93
2019-05-12T10:56:59.221Z,61.18
2019-05-12T10:59:33.121Z,60.18
2019-05-12T11:02:03.514Z,64.18
2019-05-12T11:04:38.891Z,63.59
2019-05-12T11:07:07.332Z,64.81
2019-05-12T11:09:38.114Z,63.47
2019-05-12T11:12:09.233Z,60.71
2019-05-12T11:14:40.242Z,66.87
2019-05-12T11:17:13.625Z,64.20
2019-05-12T11:19:47.196Z,61.18
2019-05-12T11:22:19.311Z,61.18
2019-05-12T11:24:52.745Z,64.94
2019-05-12T11:27:24.021Z,62.98
2019-05-12T11:29:54.929Z,63.73
2019-05-12T11:32:28.957Z,62.39
2019-05-12T11:34:58.158Z,61.59
2019-05-12T11:37:29.927Z,63.25
2019-05-12T11:40:00.939Z,62.97
2019-05-12T11:42:33.576Z,61.61
2019-05-12T11:45:04.760Z,63.58
2019-05-12T11:47:37.357Z,64.96
2019-05-12T11:50:10.023Z,63.15
2019-05-12T11:52:41.082Z,63.18
2019-05-12T11:55:13.483Z,64.69
2019-05-12T11:57:44.532Z,62.31
2019-05-12T12:00:18.257Z,63.60
2019-05-12T12:02:49.372Z,62.79
2019-05-12T12:05:20.200Z,60.25
2019-05-12T12:07:52.934Z,64.12
2019-05-12T12:10:23.962Z,63.44
2019-05-12T12:12:54.969Z,60.29
2019-05-12T12:15:30.157Z,60.29
2019-05-12T12:18:03.972Z,58.18
2019-05-12T12:20:33.520Z,54.42
2019-05-12T12:23:10.807Z,52.69
2019-05-12T12:25:36.025Z,52.80
2019-05-12T12:28:06.861Z,56.68
2019-05-12T12:30:37.703Z,56.30
2019-05-12T12:33:08.950Z,58.86
2019-05-12T12:35:40.924Z,57.45
2019-05-12T12:38:14.139Z,58.64
2019-05-12T12:40:44.395Z,55.71
2019-05-12T12:43:15.457Z,54.43
2019-05-12T12:46:01.086Z,55.30
2019-05-12T12:48:33.361Z,52.65
2019-05-12T12:51:04.514Z,54.85
2019-05-12T12:53:35.620Z,54.21
2019-05-12T12:56:06.631Z,51.94
2019-05-12T12:58:37.634Z,52.48
2019-05-12T13:01:15.729Z,48.95
2019-05-12T13:03:43.411Z,51.42
2019-05-12T13:06:16.916Z,52.01
2019-05-12T13:08:46.764Z,51.30
2019-05-12T13:11:32.148Z,49.77
2019-05-12T13:13:50.426Z,51.84
2019-05-12T13:16:21.249Z,50.67
2019-05-12T13:18:53.839Z,50.16
2019-05-12T13:21:25.038Z,49.47
2019-05-12T13:23:57.274Z,45.73
2019-05-12T13:26:28.035Z,48.00
2019-05-12T13:28:58.801Z,50.83
2019-05-12T13:31:29.567Z,49.43
2019-05-12T13:34:03.627Z,45.83
2019-05-12T13:36:37.470Z,46.77
2019-05-12T13:39:11.562Z,43.32
2019-05-12T13:41:39.994Z,43.70
2019-05-12T13:44:13.486Z,42.83
2019-05-12T13:46:48.543Z,45.03
2019-05-12T13:49:15.942Z,45.83
2019-05-12T13:51:48.453Z,43.17
2019-05-12T13:54:20.244Z,45.52
2019-05-12T13:56:53.496Z,47.84
2019-05-12T13:59:25.513Z,46.64
2019-05-12T14:01:56.418Z,47.51
2019-05-12T14:04:28.029Z,46.03
2019-05-12T14:07:00.227Z,47.06
2019-05-12T14:09:31.266Z,45.40
2019-05-12T14:12:04.345Z,48.04
2019-05-12T14:14:34.994Z,46.90
2019-05-12T14:17:05.760Z,46.23
2019-05-12T14:19:37.307Z,47.10
2019-05-12T14:22:15.493Z,45.60
2019-05-12T14:24:44.429Z,41.68
2019-05-12T14:27:18.991Z,44.51
2019-05-12T14:29:47.229Z,49.52
2019-05-12T14:32:19.236Z,48.51
2019-05-12T14:34:51.084Z,41.97
2019-05-12T14:37:24.307Z,43.75
2019-05-12T14:39:55.246Z,44.00
2019-05-12T14:42:34.871Z,42.74
2019-05-12T14:44:59.720Z,43.25
2019-05-12T14:47:30.948Z,41.43
2019-05-12T14:50:03.965Z,43.89
2019-05-12T14:52:34.913Z,47.04
2019-05-12T14:55:06.173Z,45.48
2019-05-12T14:57:39.284Z,44.25
2019-05-12T15:00:11.223Z,44.64
2019-05-12T15:02:43.838Z,46.33
2019-05-12T15:05:15.834Z,44.35
2019-05-12T15:07:57.395Z,44.37
2019-05-12T15:10:19.397Z,44.65
2019-05-12T15:12:50.657Z,45.20
2019-05-12T15:15:21.657Z,43.33
2019-05-12T15:17:55.057Z,46.15
2019-05-12T15:20:25.429Z,44.65
2019-05-12T15:22:56.421Z,43.34
2019-05-12T15:25:29.279Z,41.79
2019-05-12T15:28:00.245Z,41.17
2019-05-12T15:30:33.592Z,43.19
2019-05-12T15:33:04.661Z,45.06
2019-05-12T15:35:35.394Z,41.45
2019-05-12T15:38:09.440Z,43.77
2019-05-12T15:40:38.774Z,43.95
2019-05-12T15:43:09.788Z,43.28
2019-05-12T15:45:43.482Z,45.01
2019-05-12T15:48:14.508Z,41.48
2019-05-12T15:50:46.130Z,43.60
2019-05-12T15:53:22.081Z,41.99
2019-05-12T15:55:50.196Z,46.59
2019-05-12T15:58:21.186Z,44.51
2019-05-12T16:00:54.489Z,43.84
2019-05-12T16:03:26.590Z,44.75
2019-05-12T16:06:01.240Z,47.83
2019-05-12T16:08:30.043Z,51.06
2019-05-12T16:11:01.071Z,54.01
2019-05-12T16:13:33.792Z,47.12
2019-05-12T16:16:06.674Z,46.29
2019-05-12T16:18:40.432Z,43.34
2019-05-12T16:21:09.678Z,43.82
2019-05-12T16:23:40.621Z,49.86
2019-05-12T16:26:14.690Z,44.47
2019-05-12T16:28:44.443Z,44.09
2019-05-12T16:31:15.285Z,47.37
2019-05-12T16:33:46.043Z,47.20
2019-05-12T16:36:16.863Z,45.80
2019-05-12T16:38:50.088Z,41.32
2019-05-12T16:41:28.011Z,41.87
2019-05-12T16:43:53.783Z,46.45
2019-05-12T16:46:25.058Z,49.06
2019-05-12T16:48:57.016Z,50.94
2019-05-12T16:51:29.350Z,58.64
2019-05-12T16:54:00.350Z,53.33
2019-05-12T16:56:33.769Z,53.54
2019-05-12T16:59:07.206Z,58.53
2019-05-12T17:01:36.922Z,58.53
2019-05-12T17:04:07.922Z,62.51
2019-05-12T17:06:39.060Z,60.51
2019-05-12T17:09:10.066Z,57.31
2019-05-12T17:11:47.323Z,56.63
2019-05-12T17:14:13.455Z,58.24
2019-05-12T17:16:46.736Z,57.61
2019-05-12T17:19:16.963Z,57.83
2019-05-12T17:21:49.477Z,54.78
2019-05-12T17:24:20.770Z,59.27
2019-05-12T17:26:52.798Z,59.63
2019-05-12T17:29:24.374Z,58.68
2019-05-12T17:31:55.640Z,61.46
2019-05-12T17:34:27.249Z,62.77
2019-05-12T17:37:00.550Z,59.21
2019-05-12T17:39:35.799Z,61.81
2019-05-12T17:42:04.018Z,63.97
2019-05-12T17:44:36.975Z,58.85
2019-05-12T17:47:12.884Z,64.41
2019-05-12T17:49:40.217Z,62.58
2019-05-12T17:52:15.827Z,61.90
2019-05-12T17:54:44.300Z,65.46
2019-05-12T17:57:19.757Z,59.62
2019-05-12T17:59:48.574Z,65.17
2019-05-12T18:02:19.666Z,65.29
2019-05-12T18:04:53.362Z,66.31
2019-05-12T18:07:23.796Z,64.62
2019-05-12T18:09:56.727Z,64.00
2019-05-12T18:12:39.538Z,65.00
2019-05-12T18:14:59.713Z,64.74
2019-05-12T18:17:30.493Z,66.33
2019-05-12T18:20:03.904Z,64.01
2019-05-12T18:22:34.122Z,67.14
2019-05-12T18:25:05.218Z,66.77
2019-05-12T18:27:47.946Z,68.96
2019-05-12T18:30:08.889Z,70.72
2019-05-12T18:32:40.140Z,68.90
2019-05-12T18:35:13.407Z,69.37
2019-05-12T18:37:43.723Z,69.29
2019-05-12T18:40:14.966Z,71.46
2019-05-12T18:42:45.988Z,70.72
2019-05-12T18:45:18.325Z,76.50
2019-05-12T18:47:49.113Z,76.23
2019-05-12T18:50:27.206Z,77.71
2019-05-12T18:52:53.345Z,78.73
2019-05-12T18:55:29.343Z,79.46
2019-05-12T18:57:57.289Z,78.92
2019-05-12T19:00:28.033Z,80.30
2019-05-12T19:02:59.590Z,77.93
2019-05-12T19:05:31.683Z,78.81
2019-05-12T19:08:03.660Z,77.75
2019-05-12T19:10:38.674Z,81.09
2019-05-12T19:13:07.644Z,79.24
2019-05-12T19:15:38.508Z,77.89
2019-05-12T19:18:09.407Z,77.27
2019-05-12T19:20:40.483Z,78.23
2019-05-12T19:23:13.614Z,77.16
2019-05-12T19:25:44.490Z,77.53
2019-05-12T19:28:15.505Z,78.51
2019-05-12T19:30:46.565Z,76.49
2019-05-12T19:33:17.333Z,70.29
2019-05-12T19:35:50.337Z,73.42
2019-05-12T19:38:21.120Z,70.97
2019-05-12T19:40:58.787Z,71.18
2019-05-12T19:43:24.821Z,70.50
2019-05-12T19:46:03.064Z,74.45
2019-05-12T19:48:35.111Z,69.85
2019-05-12T19:51:19.950Z,69.64
2019-05-12T19:53:35.790Z,71.54
2019-05-12T19:56:06.540Z,73.58
2019-05-12T19:58:37.311Z,72.93
2019-05-12T20:01:09.657Z,69.52
2019-05-12T20:03:43.951Z,70.26
2019-05-12T20:06:14.606Z,71.31
2019-05-12T20:08:45.683Z,68.56
2019-05-12T20:11:20.094Z,70.26
2019-05-12T20:13:49.950Z,71.50
2019-05-12T20:16:23.172Z,72.91
2019-05-12T20:18:57.658Z,68.50
2019-05-12T20:21:28.312Z,73.24
2019-05-12T20:23:58.471Z,74.48
2019-05-12T20:26:32.992Z,74.07
2019-05-12T20:29:04.591Z,74.42
2019-05-12T20:31:43.504Z,73.64
2019-05-12T20:34:10.962Z,72.99
2019-05-12T20:36:40.089Z,76.02
2019-05-12T20:39:17.039Z,76.05
2019-05-12T20:41:43.568Z,77.22
2019-05-12T20:44:17.005Z,76.03
2019-05-12T20:46:47.014Z,71.25
2019-05-12T20:49:20.347Z,73.26
2019-05-12T20:51:55.243Z,73.39
2019-05-12T20:54:23.963Z,72.38
2019-05-12T20:57:02.446Z,73.70
2019-05-12T20:59:28.508Z,73.24
2019-05-12T21:01:59.449Z,75.06
2019-05-12T21:04:31.918Z,73.42
2019-05-12T21:07:04.546Z,75.20
2019-05-12T21:09:35.370Z,75.14
2019-05-12T21:12:06.192Z,75.81
2019-05-12T21:14:42.547Z,77.43
2019-05-12T21:17:14.561Z,78.26
2019-05-12T21:19:55.519Z,76.97
2019-05-12T21:22:15.482Z,80.08
2019-05-12T21:24:46.409Z,79.22
2019-05-12T21:27:19.866Z,79.21
2019-05-12T21:29:49.780Z,75.14
2019-05-12T21:32:20.822Z,76.70
2019-05-12T21:34:52.210Z,74.94
2019-05-12T21:37:25.424Z,74.27
2019-05-12T21:39:56.661Z,73.94
2019-05-12T21:42:27.455Z,74.87
2019-05-12T21:44:58.220Z,76.44
2019-05-12T21:47:34.015Z,75.52
2019-05-12T21:50:03.539Z,76.02
2019-05-12T21:52:38.985Z,76.70
2019-05-12T21:55:13.581Z,77.22
2019-05-12T21:57:40.044Z,77.27
2019-05-12T22:00:20.149Z,78.24
2019-05-12T22:02:53.401Z,75.83
2019-05-12T22:05:47.025Z,76.93
2019-05-12T22:07:58.960Z,77.10
2019-05-12T22:10:30.697Z,74.92
2019-05-12T22:13:07.367Z,74.72
2019-05-12T22:15:34.657Z,73.56
2019-05-12T22:18:06.068Z,74.66
2019-05-12T22:20:36.995Z,72.12
2019-05-12T22:23:11.898Z,72.06
2019-05-12T22:25:40.526Z,74.41
2019-05-12T22:28:13.505Z,74.29
2019-05-12T22:30:44.051Z,76.29
2019-05-12T22:33:15.470Z,73.73
2019-05-12T22:35:46.212Z,76.44
2019-05-12T22:38:21.118Z,76.60
2019-05-12T22:40:56.064Z,76.19
2019-05-12T22:43:23.755Z,75.38
2019-05-12T22:45:54.972Z,77.70
2019-05-12T22:48:29.700Z,79.47
2019-05-12T22:50:58.712Z,78.68
2019-05-12T22:53:30.273Z,80.62
2019-05-12T22:56:03.002Z,78.27
2019-05-12T22:58:34.266Z,77.21
2019-05-12T23:01:05.831Z,77.54
2019-05-12T23:03:36.875Z,80.41
2019-05-12T23:06:21.122Z,82.66
2019-05-12T23:08:47.145Z,81.33
2019-05-12T23:11:15.382Z,81.36
2019-05-12T23:13:46.360Z,82.13
2019-05-12T23:16:19.187Z,83.18
2019-05-12T23:18:49.949Z,82.68
2019-05-12T23:21:20.710Z,84.38
2019-05-12T23:23:57.530Z,82.61
2019-05-12T23:26:24.618Z,84.46
2019-05-12T23:28:55.605Z,84.40
2019-05-12T23:31:30.217Z,84.62
2019-05-12T23:33:59.069Z,84.56
2019-05-12T23:36:36.521Z,84.72
2019-05-12T23:39:04.764Z,84.79
2019-05-12T23:41:34.905Z,84.84
2019-05-12T23:44:06.224Z,84.58
2019-05-12T23:46:36.988Z,85.04
2019-05-12T23:49:07.747Z,84.50
2019-05-12T23:51:39.959Z,86.28
2019-05-12T23:54:11.024Z,86.71
2019-05-12T23:56:43.884Z,86.67
2019-05-12T23:59:14.259Z,86.05
